Time;durP1;ratioP1;P1;durP2;ratioP2;P2;SDS_P1;SDS_P2;PMS_P1;PMS_P2;Temp;Humidity;BMP_temperature;BMP_pressure;BME280_temperature;BME280_humidity;BME280_pressure;Samples;Min_cycle;Max_cycle;Signal;HPM_P1;HPM_P2
2021/03/02 00:38:18;;;;;;;84.93;32.33;;;6.80;99.90;;;;;;4932541;23;20203;-95
2021/03/02 00:40:30;;;;;;;72.43;30.83;;;6.90;99.90;;;;;;4008390;29;20226;-94
2021/03/02 00:42:36;;;;;;;83.43;31.77;;;6.90;99.90;;;;;;4012083;29;20199;-94
2021/03/02 00:45:37;;;;;;;76.23;31.37;;;6.90;99.90;;;;;;4024374;29;20195;-94
2021/03/02 00:47:59;;;;;;;77.00;31.57;;;7.00;99.90;;;;;;4011326;29;20194;-95
2021/03/02 00:50:09;;;;;;;80.57;31.77;;;7.00;99.90;;;;;;4010158;29;20211;-93
2021/03/02 00:52:23;;;;;;;80.23;31.80;;;6.90;99.90;;;;;;4009338;29;20282;-94
2021/03/02 01:21:20;;;;;;;73.63;30.97;;;7.10;99.90;;;;;;4371166;23;20267;-95
2021/03/02 01:25:31;;;;;;;73.03;30.10;;;7.30;99.90;;;;;;4044385;29;20257;-93
2021/03/02 01:27:34;;;;;;;70.23;31.07;;;7.30;99.90;;;;;;4041011;29;20177;-94
2021/03/02 01:29:37;;;;;;;82.13;31.57;;;7.20;99.90;;;;;;4066543;29;20279;-94
2021/03/02 01:31:43;;;;;;;80.90;31.73;;;7.20;99.90;;;;;;4032814;29;20198;-95
2021/03/02 01:33:54;;;;;;;81.10;30.20;;;7.10;99.90;;;;;;4044175;29;20213;-95
2021/03/02 01:35:58;;;;;;;74.60;30.63;;;7.30;99.90;;;;;;4042054;29;20196;-96
2021/03/02 01:38:05;;;;;;;61.67;28.30;;;7.40;99.90;;;;;;4045567;29;20519;-95
2021/03/02 01:40:18;;;;;;;74.43;28.87;;;7.40;99.90;;;;;;4043930;29;20213;-94
2021/03/02 01:42:26;;;;;;;73.60;30.00;;;7.30;99.90;;;;;;4044238;29;20641;-94
2021/03/02 01:44:28;;;;;;;74.67;28.77;;;7.50;99.90;;;;;;4044982;29;20249;-94
2021/03/02 01:46:29;;;;;;;68.80;29.00;;;7.60;99.90;;;;;;4060647;29;20692;-94
2021/03/02 01:48:37;;;;;;;71.47;28.53;;;7.60;99.90;;;;;;4059829;29;20188;-94
2021/03/02 06:02:50;;;;;;;75.10;28.57;;;5.70;99.90;;;;;;4726793;23;20263;-94
2021/03/02 06:10:34;;;;;;;70.27;26.97;;;5.70;99.90;;;;;;4188301;23;20240;-94
2021/03/02 06:12:58;;;;;;;74.83;28.13;;;5.70;99.90;;;;;;4058484;29;20231;-93
2021/03/02 06:15:20;;;;;;;;;;;;;;;;;;;;;
2021/03/02 06:17:41;;;;;;;75.27;27.97;;;5.60;99.90;;;;;;4062877;29;20660;-94
2021/03/02 06:25:37;;;;;;;74.33;26.30;;;5.50;99.90;;;;;;4493563;23;20576;-94
2021/03/02 07:08:50;;;;;;;43.50;20.30;;;8.70;99.90;;;;;;4629123;23;20250;-94
2021/03/02 07:13:27;;;;;;;38.43;19.03;;;9.20;99.90;;;;;;4433863;23;20227;-96
2021/03/02 07:15:35;;;;;;;44.43;20.43;;;9.60;99.90;;;;;;4045383;29;20194;-95
2021/03/02 07:17:42;;;;;;;51.33;20.47;;;10.00;99.90;;;;;;4057805;29;20181;-96
2021/03/02 07:19:47;;;;;;;41.80;20.43;;;10.40;99.90;;;;;;4074743;29;20703;-95
2021/03/02 07:21:54;;;;;;;38.90;19.50;;;10.70;99.90;;;;;;4027875;29;20179;-95
2021/03/02 07:24:09;;;;;;;50.47;20.47;;;11.00;99.90;;;;;;4044151;29;20661;-94
2021/03/02 07:26:14;;;;;;;40.27;20.03;;;10.90;99.90;;;;;;4059595;29;20189;-95
2021/03/02 07:28:24;;;;;;;41.27;21.23;;;10.80;99.90;;;;;;4043659;29;20618;-95
2021/03/02 07:30:40;;;;;;;44.10;21.97;;;10.50;99.90;;;;;;4062507;29;20212;-95
2021/03/02 07:32:49;;;;;;;52.07;21.57;;;10.20;99.90;;;;;;4047316;29;20699;-95
2021/03/02 07:34:56;;;;;;;41.87;21.23;;;10.20;99.90;;;;;;4043704;29;20193;-95
2021/03/02 07:36:58;;;;;;;43.23;21.07;;;10.20;99.90;;;;;;4048327;29;20209;-95
2021/03/02 07:39:17;;;;;;;50.80;21.13;;;10.20;99.90;;;;;;4064818;29;20192;-95
2021/03/02 07:41:36;;;;;;;49.93;20.90;;;10.40;99.90;;;;;;4078694;23;20275;-96
2021/03/02 07:43:45;;;;;;;43.77;20.27;;;10.40;99.90;;;;;;4059378;29;20237;-96
2021/03/02 07:45:46;;;;;;;43.73;20.07;;;10.40;99.90;;;;;;4060531;29;20193;-96
2021/03/02 07:47:49;;;;;;;37.27;18.27;;;10.50;99.90;;;;;;4046911;29;20194;-96
2021/03/02 07:49:50;;;;;;;39.77;20.10;;;10.90;99.90;;;;;;4060862;29;20200;-96
2021/03/02 07:51:56;;;;;;;40.50;19.53;;;11.40;99.90;;;;;;4089676;29;20283;-96
2021/03/02 07:54:16;;;;;;;37.57;18.43;;;11.80;99.90;;;;;;4078193;29;20216;-96
2021/03/02 07:56:25;;;;;;;38.83;19.80;;;12.10;99.90;;;;;;4076667;29;20716;-94
2021/03/02 07:58:29;;;;;;;37.57;19.23;;;12.10;99.90;;;;;;4061589;29;20213;-96
2021/03/02 08:00:32;;;;;;;39.83;19.87;;;11.80;99.90;;;;;;4030564;29;20210;-95
2021/03/02 08:02:37;;;;;;;39.17;20.13;;;11.40;99.90;;;;;;4042511;29;20282;-95
2021/03/02 08:04:48;;;;;;;40.77;18.83;;;11.30;99.90;;;;;;4075750;29;20191;-95
2021/03/02 08:06:54;;;;;;;40.40;19.80;;;11.20;99.90;;;;;;4077427;29;20185;-96
2021/03/02 08:08:56;;;;;;;37.70;19.80;;;11.10;99.90;;;;;;4077880;29;20243;-94
2021/03/02 08:11:02;;;;;;;47.43;19.80;;;11.20;99.90;;;;;;4062057;29;20200;-96
2021/03/02 08:13:40;;;;;;;38.63;18.97;;;11.20;99.90;;;;;;4045332;29;20221;-95
2021/03/02 08:15:41;;;;;;;37.20;18.70;;;11.40;99.90;;;;;;4026984;29;20189;-96
2021/03/02 08:17:43;;;;;;;30.80;16.50;;;11.80;99.90;;;;;;4063607;29;20253;-96
2021/03/02 08:20:09;;;;;;;34.87;17.70;;;12.30;99.90;;;;;;4047992;29;20214;-96
2021/03/02 08:22:26;;;;;;;34.23;17.00;;;13.00;99.90;;;;;;4064145;29;20503;-95
2021/03/02 08:25:01;;;;;;;30.77;15.68;;;13.40;99.90;;;;;;4047388;29;20184;-96
2021/03/02 08:27:08;;;;;;;26.83;15.50;;;13.60;99.90;;;;;;4045785;29;20193;-96
2021/03/02 08:29:19;;;;;;;27.40;15.77;;;14.70;99.90;;;;;;4127442;23;20287;-96
2021/03/02 08:31:25;;;;;;;27.10;14.80;;;15.60;99.90;;;;;;4060619;29;20197;-96
2021/03/02 08:33:30;;;;;;;26.45;13.98;;;16.10;99.90;;;;;;4047472;29;20228;-96
2021/03/02 08:35:43;;;;;;;23.88;13.77;;;16.50;99.90;;;;;;4062893;29;20234;-95
2021/03/02 08:37:47;;;;;;;29.13;15.00;;;16.40;99.90;;;;;;4063551;29;20193;-96
2021/03/02 08:39:54;;;;;;;29.85;16.02;;;16.00;99.90;;;;;;4047192;29;20221;-96
2021/03/02 08:41:56;;;;;;;25.33;14.18;;;15.40;99.90;;;;;;4047937;29;20178;-96
2021/03/02 08:44:05;;;;;;;24.08;14.30;;;15.90;99.90;;;;;;4029275;29;20174;-96
2021/03/02 08:46:10;;;;;;;28.90;14.35;;;16.50;99.90;;;;;;4018020;29;20175;-96
2021/03/02 08:48:34;;;;;;;24.85;14.63;;;17.20;99.90;;;;;;4045152;29;20174;-96
2021/03/02 08:53:02;;;;;;;24.30;13.02;;;17.40;99.90;;;;;;4076902;29;20219;-95
2021/03/02 08:55:09;;;;;;;28.13;13.70;;;17.30;99.90;;;;;;4069051;23;20233;-96
2021/03/02 08:57:12;;;;;;;28.60;13.48;;;17.70;99.90;;;;;;4060183;29;20192;-96
2021/03/02 08:59:20;;;;;;;27.58;13.90;;;17.90;99.90;;;;;;4057138;29;20213;-94
2021/03/02 09:01:28;;;;;;;20.02;13.45;;;18.40;99.90;;;;;;4045411;29;20257;-94
2021/03/02 09:03:32;;;;;;;22.80;13.70;;;18.10;99.90;;;;;;4046222;29;20264;-95
2021/03/02 09:05:37;;;;;;;20.88;13.45;;;18.50;99.90;;;;;;4049763;29;20158;-95
2021/03/02 09:08:18;;;;;;;20.35;13.50;;;18.40;99.90;;;;;;4089493;23;20205;-95
2021/03/02 09:10:28;;;;;;;20.60;12.90;;;18.70;99.90;;;;;;4045928;29;20269;-96
2021/03/02 09:14:48;;;;;;;22.60;11.77;;;18.90;99.90;;;;;;4069473;29;20219;-89
2021/03/02 09:16:50;;;;;;;18.48;11.93;;;19.30;99.90;;;;;;4053174;29;20189;-89
2021/03/02 09:19:02;;;;;;;23.00;11.10;;;19.60;99.90;;;;;;4052392;29;20276;-90
2021/03/02 09:21:10;;;;;;;16.85;10.98;;;20.10;99.90;;;;;;4053128;29;20216;-89
2021/03/02 09:23:11;;;;;;;19.42;11.23;;;19.10;99.90;;;;;;4053132;29;20230;-90
2021/03/02 09:25:13;;;;;;;22.23;10.85;;;19.40;99.90;;;;;;4037844;29;20188;-90
2021/03/02 09:27:18;;;;;;;16.90;10.50;;;19.30;99.90;;;;;;4053337;29;20207;-90
2021/03/02 09:29:20;;;;;;;17.50;9.77;;;19.00;99.90;;;;;;4053178;29;20281;-89
2021/03/02 09:31:21;;;;;;;17.17;10.32;;;18.40;99.90;;;;;;4053365;29;20268;-90
2021/03/02 09:33:21;;;;;;;18.95;11.45;;;18.80;99.90;;;;;;4053331;29;20684;-90
2021/03/02 09:35:22;;;;;;;19.65;10.63;;;19.30;99.90;;;;;;4037820;29;20193;-90
2021/03/02 09:37:24;;;;;;;19.80;10.63;;;18.20;99.90;;;;;;4037649;29;20182;-89
2021/03/02 09:39:26;;;;;;;14.80;9.38;;;17.40;99.90;;;;;;4053103;29;20744;-89
2021/03/02 09:41:45;;;;;;;21.13;11.15;;;17.20;99.90;;;;;;4053040;29;20193;-88
2021/03/02 09:43:46;;;;;;;18.80;10.13;;;17.80;99.90;;;;;;4053066;29;20225;-89
2021/03/02 09:45:55;;;;;;;17.90;10.73;;;18.30;99.90;;;;;;4038992;29;20190;-89
2021/03/02 09:47:59;;;;;;;15.57;10.25;;;18.40;99.90;;;;;;4056144;29;20660;-89
2021/03/02 09:50:11;;;;;;;19.38;11.10;;;18.20;99.90;;;;;;4055992;29;20260;-88
2021/03/02 09:52:20;;;;;;;17.33;10.57;;;17.80;99.90;;;;;;4056116;29;20256;-90
2021/03/02 09:54:21;;;;;;;17.73;10.57;;;17.60;99.90;;;;;;4056028;29;20257;-89
2021/03/02 09:56:22;;;;;;;20.95;10.57;;;17.90;99.90;;;;;;4040640;29;20182;-89
2021/03/02 09:58:23;;;;;;;22.17;11.38;;;17.90;99.90;;;;;;4040383;29;20189;-89
2021/03/02 10:00:32;;;;;;;19.23;11.23;;;18.10;99.90;;;;;;4024971;29;20213;-89
2021/03/02 10:02:38;;;;;;;23.65;11.63;;;17.90;99.90;;;;;;4055823;29;20181;-89
2021/03/02 10:04:38;;;;;;;26.90;11.70;;;17.60;99.90;;;;;;4055869;29;20279;-89
2021/03/02 10:06:39;;;;;;;21.88;11.60;;;16.90;99.90;;;;;;4040515;29;20214;-88
2021/03/02 10:08:47;;;;;;;22.85;12.00;;;16.40;99.90;;;;;;4040342;29;20606;-88
2021/03/02 10:10:49;;;;;;;22.27;11.32;;;15.70;99.90;;;;;;4056004;29;20211;-88
2021/03/02 10:13:01;;;;;;;21.20;11.52;;;15.00;99.90;;;;;;4055810;29;20248;-88
2021/03/02 10:15:02;;;;;;;24.70;11.77;;;14.30;99.90;;;;;;4055917;29;20243;-88
2021/03/02 10:17:03;;;;;;;23.92;12.05;;;13.70;99.90;;;;;;4040328;29;20177;-88
2021/03/02 10:19:20;;;;;;;28.70;12.43;;;13.60;99.90;;;;;;4040079;29;20192;-88
2021/03/02 10:21:47;;;;;;;20.92;11.75;;;13.60;99.90;;;;;;4055781;29;20173;-88
2021/03/02 10:23:58;;;;;;;26.55;11.45;;;13.80;99.90;;;;;;4055615;29;20208;-88
2021/03/02 10:26:00;;;;;;;23.80;11.95;;;13.80;99.90;;;;;;4055573;29;20223;-90
2021/03/02 10:28:00;;;;;;;25.23;12.73;;;13.70;99.90;;;;;;4040178;29;20193;-87
2021/03/02 10:30:05;;;;;;;30.95;13.13;;;13.80;99.90;;;;;;4055716;29;20562;-90
2021/03/02 10:32:06;;;;;;;21.25;11.77;;;14.20;99.90;;;;;;4040089;29;20194;-88
2021/03/02 10:34:09;;;;;;;23.10;12.60;;;14.30;99.90;;;;;;4055445;29;20653;-88
2021/03/02 10:36:32;;;;;;;24.85;12.35;;;14.30;99.90;;;;;;4055406;29;20676;-90
2021/03/02 10:38:33;;;;;;;22.35;12.65;;;14.30;99.90;;;;;;4055442;29;20253;-90
2021/03/02 10:40:34;;;;;;;25.95;12.43;;;14.30;99.90;;;;;;4039847;29;20652;-88
2021/03/02 10:42:35;;;;;;;20.55;12.00;;;14.50;99.90;;;;;;4055134;29;20245;-91
2021/03/02 10:44:36;;;;;;;21.92;12.07;;;14.50;99.90;;;;;;4039881;29;20642;-88
2021/03/02 10:46:37;;;;;;;22.10;12.55;;;14.70;99.90;;;;;;4039943;29;20174;-90
2021/03/02 10:48:38;;;;;;;27.35;12.32;;;14.60;99.90;;;;;;4039773;29;20182;-89
2021/03/02 10:50:39;;;;;;;24.83;13.27;;;14.60;99.90;;;;;;4055164;29;20696;-90
2021/03/02 10:52:40;;;;;;;30.13;13.18;;;14.60;99.90;;;;;;4055266;29;20261;-90
2021/03/02 10:54:40;;;;;;;23.60;12.40;;;14.70;99.90;;;;;;4040182;29;20186;-90
2021/03/02 10:56:41;;;;;;;24.33;12.68;;;14.80;99.90;;;;;;4038749;29;20655;-90
2021/03/02 10:58:43;;;;;;;24.17;12.63;;;14.80;99.90;;;;;;4024116;29;20195;-90
2021/03/02 11:00:44;;;;;;;27.50;13.40;;;14.60;99.90;;;;;;4055042;29;20208;-90
2021/03/02 11:02:45;;;;;;;24.65;12.82;;;14.80;99.90;;;;;;4039597;29;20214;-90
2021/03/02 11:04:45;;;;;;;24.35;12.25;;;14.80;99.90;;;;;;4039794;29;20189;-90
2021/03/02 11:06:46;;;;;;;26.35;12.32;;;14.90;99.90;;;;;;4039679;29;20213;-90
2021/03/02 11:08:48;;;;;;;29.05;13.52;;;14.90;99.90;;;;;;4039619;29;20188;-87
2021/03/02 11:10:50;;;;;;;23.13;12.98;;;15.00;99.90;;;;;;4055175;29;20177;-89
2021/03/02 11:12:50;;;;;;;24.50;12.32;;;14.80;99.90;;;;;;4054971;29;20237;-90
2021/03/02 11:14:51;;;;;;;25.95;13.18;;;14.60;99.90;;;;;;4023954;29;20301;-90
2021/03/02 11:16:52;;;;;;;27.83;13.35;;;14.70;99.90;;;;;;4054986;29;20637;-90
2021/03/02 11:18:53;;;;;;;29.08;12.88;;;14.50;99.90;;;;;;4039289;29;20185;-90
2021/03/02 11:20:54;;;;;;;25.25;13.75;;;14.60;99.90;;;;;;4054924;29;20177;-90
2021/03/02 11:22:55;;;;;;;23.60;13.15;;;14.60;99.90;;;;;;4039220;29;20646;-89
2021/03/02 11:24:55;;;;;;;24.95;13.60;;;14.70;99.90;;;;;;4054712;29;20549;-90
2021/03/02 11:26:56;;;;;;;27.95;13.25;;;15.00;99.90;;;;;;4039515;29;20622;-90
2021/03/02 11:28:57;;;;;;;27.92;13.82;;;15.40;99.90;;;;;;4039240;29;20185;-90
2021/03/02 11:30:57;;;;;;;25.75;13.75;;;15.40;99.90;;;;;;4039191;29;20535;-89
2021/03/02 11:32:58;;;;;;;31.65;13.23;;;15.30;99.90;;;;;;4054498;29;20672;-90
2021/03/02 11:34:59;;;;;;;26.52;13.32;;;15.00;99.90;;;;;;4039149;29;20294;-90
2021/03/02 11:36:59;;;;;;;22.38;12.77;;;15.00;99.90;;;;;;4039139;29;20194;-90
2021/03/02 11:39:00;;;;;;;27.85;13.60;;;15.40;99.90;;;;;;4038911;29;20185;-90
2021/03/02 11:41:03;;;;;;;25.10;13.30;;;15.60;99.90;;;;;;4039043;29;20210;-90
2021/03/02 11:43:04;;;;;;;26.08;13.45;;;15.60;99.90;;;;;;4039003;29;20234;-90
2021/03/02 11:45:07;;;;;;;22.25;13.93;;;15.60;99.90;;;;;;4038910;29;20193;-90
2021/03/02 11:47:07;;;;;;;28.20;13.63;;;15.60;99.90;;;;;;4038827;29;20173;-90
2021/03/02 11:49:08;;;;;;;28.90;13.32;;;15.60;99.90;;;;;;4038721;29;20241;-90
2021/03/02 11:51:09;;;;;;;32.28;14.75;;;15.40;99.90;;;;;;4038734;29;20177;-91
2021/03/02 11:53:09;;;;;;;25.83;12.88;;;15.70;99.90;;;;;;4038949;29;20197;-91
2021/03/02 11:55:11;;;;;;;31.13;14.38;;;15.80;99.90;;;;;;4038632;29;20189;-91
2021/03/02 11:57:11;;;;;;;26.63;13.68;;;15.90;99.90;;;;;;4038762;29;20200;-89
2021/03/02 11:59:12;;;;;;;25.85;14.13;;;16.20;99.90;;;;;;4038708;29;20287;-90
2021/03/02 12:01:13;;;;;;;28.50;15.23;;;16.20;99.90;;;;;;4038834;29;20242;-90
2021/03/02 12:03:13;;;;;;;33.45;14.85;;;16.30;99.90;;;;;;4038817;29;20258;-90
2021/03/02 12:05:15;;;;;;;22.50;13.55;;;16.50;99.90;;;;;;4038798;29;20178;-90
2021/03/02 12:07:16;;;;;;;25.20;13.77;;;16.10;99.90;;;;;;4054300;29;20283;-91
2021/03/02 12:09:17;;;;;;;29.40;13.57;;;15.80;99.90;;;;;;4037995;29;20217;-90
2021/03/02 12:11:18;;;;;;;22.17;13.70;;;15.60;99.90;;;;;;4038436;29;20545;-91
2021/03/02 12:13:21;;;;;;;23.52;14.00;;;15.60;99.90;;;;;;4053831;29;20581;-91
2021/03/02 12:15:22;;;;;;;32.90;14.13;;;15.80;99.90;;;;;;4038482;29;20197;-91
2021/03/02 12:17:23;;;;;;;27.13;14.25;;;15.90;99.90;;;;;;4038526;29;20330;-91
2021/03/02 12:19:24;;;;;;;24.88;13.70;;;15.90;99.90;;;;;;4053934;29;20252;-91
2021/03/02 12:21:25;;;;;;;28.08;15.13;;;15.70;99.90;;;;;;4053886;29;20609;-91
2021/03/02 12:23:25;;;;;;;33.65;13.48;;;15.90;99.90;;;;;;4038417;29;20257;-90
2021/03/02 12:25:26;;;;;;;24.50;13.68;;;16.20;99.90;;;;;;4038284;29;20235;-90
2021/03/02 12:27:27;;;;;;;28.42;13.77;;;16.20;99.90;;;;;;4038315;29;20182;-90
2021/03/02 12:29:27;;;;;;;28.00;14.23;;;15.80;99.90;;;;;;4053768;29;20209;-90
2021/03/02 12:31:28;;;;;;;31.67;14.40;;;15.90;99.90;;;;;;4038429;29;20181;-90
2021/03/02 12:33:29;;;;;;;28.42;14.15;;;16.20;99.90;;;;;;4038263;29;20565;-90
2021/03/02 12:35:29;;;;;;;31.27;13.60;;;16.50;99.90;;;;;;4038230;29;20193;-90
2021/03/02 12:37:30;;;;;;;30.48;13.63;;;16.70;99.90;;;;;;4038268;29;20186;-90
2021/03/02 12:39:32;;;;;;;99.57;27.70;;;16.60;99.90;;;;;;4038125;29;20217;-90
2021/03/02 12:41:33;;;;;;;89.68;24.08;;;16.80;99.90;;;;;;4038082;29;20189;-90
2021/03/02 12:43:33;;;;;;;56.35;17.88;;;17.00;99.90;;;;;;4038158;29;20323;-90
2021/03/02 12:45:34;;;;;;;250.60;68.88;;;17.20;99.90;;;;;;4038038;29;20668;-90
2021/03/02 12:47:35;;;;;;;214.45;61.63;;;17.30;99.90;;;;;;4038121;29;20187;-90
2021/03/02 12:49:36;;;;;;;31.73;14.30;;;17.40;99.90;;;;;;4038088;29;20257;-90
2021/03/02 12:51:37;;;;;;;128.52;38.85;;;17.50;99.90;;;;;;4038047;29;20182;-91
2021/03/02 12:53:37;;;;;;;139.70;36.22;;;17.10;99.90;;;;;;4053304;29;20224;-90
2021/03/02 12:55:40;;;;;;;27.17;13.73;;;17.40;99.90;;;;;;4038095;29;20718;-90
2021/03/02 12:57:41;;;;;;;29.38;13.50;;;17.50;99.90;;;;;;4053586;29;20176;-91
2021/03/02 12:59:42;;;;;;;25.60;13.75;;;17.50;99.90;;;;;;4037983;29;20296;-90
2021/03/02 13:01:43;;;;;;;30.08;13.60;;;17.60;99.90;;;;;;4038092;29;20538;-91
2021/03/02 13:03:44;;;;;;;30.20;14.77;;;17.70;99.90;;;;;;4037935;29;20594;-90
2021/03/02 13:05:46;;;;;;;27.80;14.07;;;17.90;99.90;;;;;;4037739;29;20326;-90
2021/03/02 13:07:47;;;;;;;30.63;13.95;;;18.00;99.90;;;;;;4053341;29;20636;-90
2021/03/02 13:09:48;;;;;;;27.23;14.48;;;18.20;99.90;;;;;;4037760;29;20212;-90
2021/03/02 13:11:50;;;;;;;34.50;14.32;;;18.20;99.90;;;;;;4053211;29;20195;-90
2021/03/02 13:13:50;;;;;;;27.88;13.63;;;18.30;99.90;;;;;;4053218;29;20335;-90
2021/03/02 13:15:52;;;;;;;28.73;13.80;;;18.20;99.90;;;;;;4037666;29;20768;-90
2021/03/02 13:17:53;;;;;;;29.63;15.25;;;18.10;99.90;;;;;;4053250;29;20193;-90
2021/03/02 13:19:54;;;;;;;52.75;18.80;;;17.90;99.90;;;;;;4037083;29;20213;-90
2021/03/02 13:21:55;;;;;;;66.72;23.10;;;18.00;99.90;;;;;;4022403;29;20662;-90
2021/03/02 13:23:58;;;;;;;65.65;22.23;;;18.10;99.90;;;;;;4037497;29;20228;-90
2021/03/02 13:25:59;;;;;;;35.85;15.68;;;18.30;99.90;;;;;;4053603;29;20189;-90
2021/03/02 13:28:01;;;;;;;32.05;14.60;;;18.30;99.90;;;;;;4037651;29;20203;-90
2021/03/02 13:30:05;;;;;;;52.28;18.20;;;18.30;99.90;;;;;;4052972;29;20284;-90
2021/03/02 13:32:08;;;;;;;34.03;14.38;;;18.10;99.90;;;;;;4053044;29;20185;-90
2021/03/02 13:34:13;;;;;;;28.08;14.48;;;17.90;99.90;;;;;;4053416;29;20200;-89
2021/03/02 13:36:17;;;;;;;32.63;14.88;;;18.00;99.90;;;;;;4053199;29;20187;-90
2021/03/02 13:38:19;;;;;;;28.08;14.30;;;18.20;99.90;;;;;;4053041;29;20177;-90
2021/03/02 13:40:21;;;;;;;29.08;14.13;;;18.10;99.90;;;;;;4037855;29;20288;-90
2021/03/02 13:42:22;;;;;;;31.80;15.35;;;18.00;99.90;;;;;;4053019;29;20516;-89
2021/03/02 13:44:23;;;;;;;31.65;15.77;;;18.20;99.90;;;;;;4037510;29;20353;-90
2021/03/02 13:46:24;;;;;;;36.92;14.80;;;17.80;99.90;;;;;;4037649;29;20709;-90
2021/03/02 13:48:25;;;;;;;25.98;14.35;;;17.70;99.90;;;;;;4036826;29;20190;-90
2021/03/02 13:50:27;;;;;;;34.05;14.93;;;17.50;99.90;;;;;;4021571;29;20258;-91
2021/03/02 13:52:29;;;;;;;32.08;15.88;;;17.60;99.90;;;;;;4037709;29;20229;-90
2021/03/02 13:54:30;;;;;;;29.33;14.32;;;17.60;99.90;;;;;;4053032;29;20189;-90
2021/03/02 13:56:31;;;;;;;29.52;14.63;;;17.50;99.90;;;;;;4052920;29;20283;-90
2021/03/02 13:58:31;;;;;;;29.73;15.40;;;17.50;99.90;;;;;;4037370;29;20539;-91
2021/03/02 14:00:35;;;;;;;32.78;15.85;;;17.60;99.90;;;;;;4037269;29;20224;-90
2021/03/02 14:02:37;;;;;;;28.42;15.82;;;17.80;99.90;;;;;;4037376;29;20182;-90
2021/03/02 14:04:39;;;;;;;32.85;15.27;;;17.90;99.90;;;;;;4053519;23;20665;-91
2021/03/02 14:06:41;;;;;;;28.63;15.63;;;17.80;99.90;;;;;;4041608;29;20654;-90
2021/03/02 14:08:42;;;;;;;31.27;14.75;;;18.20;99.90;;;;;;4038922;29;20209;-90
2021/03/02 14:10:44;;;;;;;28.65;14.52;;;18.20;99.90;;;;;;4055008;29;20250;-90
2021/03/02 14:12:49;;;;;;;30.92;15.23;;;18.10;99.90;;;;;;4023671;29;20190;-90
2021/03/02 14:14:51;;;;;;;32.97;15.02;;;17.90;99.90;;;;;;4023181;29;20182;-89
2021/03/02 14:16:52;;;;;;;31.63;14.48;;;17.60;99.90;;;;;;4054626;29;20224;-90
2021/03/02 14:18:56;;;;;;;36.00;14.90;;;17.50;99.90;;;;;;4038267;29;20550;-92
2021/03/02 14:20:58;;;;;;;32.75;14.25;;;17.40;99.90;;;;;;4039427;29;20193;-90
2021/03/02 14:22:59;;;;;;;31.10;16.35;;;17.30;99.90;;;;;;4024081;29;20270;-89
2021/03/02 14:25:01;;;;;;;36.83;15.40;;;17.60;99.90;;;;;;4041480;29;20182;-91
2021/03/02 14:27:01;;;;;;;31.70;15.05;;;17.80;99.90;;;;;;4039511;29;20196;-90
2021/03/02 14:29:03;;;;;;;27.80;14.57;;;18.00;99.90;;;;;;4039704;29;20783;-90
2021/03/02 14:31:04;;;;;;;29.17;14.77;;;18.20;99.90;;;;;;4024481;29;20730;-91
2021/03/02 14:33:05;;;;;;;33.28;14.63;;;18.20;99.90;;;;;;4042665;29;20178;-89
2021/03/02 14:35:14;;;;;;;37.05;14.90;;;18.30;99.90;;;;;;4026586;29;20647;-89
2021/03/02 14:37:14;;;;;;;34.63;14.48;;;18.50;99.90;;;;;;4027112;29;20185;-90
2021/03/02 14:39:16;;;;;;;28.65;13.93;;;18.80;99.90;;;;;;4041267;29;20213;-89
2021/03/02 14:41:23;;;;;;;35.45;14.48;;;18.70;99.90;;;;;;4026794;29;20248;-91
2021/03/02 14:43:29;;;;;;;30.42;14.43;;;18.50;99.90;;;;;;4012063;29;20318;-90
2021/03/02 14:45:35;;;;;;;33.15;14.20;;;18.30;99.90;;;;;;4026753;29;20187;-89
2021/03/02 14:47:47;;;;;;;27.27;13.82;;;18.20;99.90;;;;;;4027004;29;20554;-89
2021/03/02 14:50:03;;;;;;;42.25;15.70;;;18.50;99.90;;;;;;4040475;29;20209;-89
2021/03/02 14:52:09;;;;;;;31.65;14.40;;;18.50;99.90;;;;;;4027107;29;20188;-90
2021/03/02 14:54:15;;;;;;;33.40;14.77;;;18.60;99.90;;;;;;4027410;29;20191;-92
2021/03/02 14:56:18;;;;;;;36.03;13.45;;;18.70;99.90;;;;;;4026660;29;20200;-89
2021/03/02 14:58:21;;;;;;;26.65;13.65;;;18.30;99.90;;;;;;4026003;29;20639;-89
2021/03/02 15:00:24;;;;;;;34.17;14.30;;;18.20;99.90;;;;;;4026113;29;20231;-89
2021/03/02 15:02:25;;;;;;;35.17;13.38;;;18.50;99.90;;;;;;4027080;29;20277;-89
2021/03/02 15:04:26;;;;;;;34.00;14.30;;;18.30;99.90;;;;;;4042112;29;20677;-89
2021/03/02 15:06:28;;;;;;;31.50;13.45;;;18.00;99.90;;;;;;4026933;29;20313;-90
2021/03/02 15:08:31;;;;;;;29.98;13.30;;;17.90;99.90;;;;;;4058690;29;20181;-89
2021/03/02 15:10:32;;;;;;;31.52;13.13;;;18.00;99.90;;;;;;4025981;29;20219;-89
2021/03/02 15:12:34;;;;;;;31.67;13.43;;;18.40;99.90;;;;;;4057145;29;20300;-89
2021/03/02 15:14:39;;;;;;;33.22;13.50;;;18.60;99.90;;;;;;4026643;29;20277;-89
2021/03/02 15:16:42;;;;;;;36.38;14.07;;;18.60;99.90;;;;;;4026137;29;20257;-90
2021/03/02 15:18:43;;;;;;;29.48;14.55;;;18.70;99.90;;;;;;4026584;29;20175;-89
2021/03/02 15:20:44;;;;;;;31.92;14.65;;;18.60;99.90;;;;;;4057931;29;20694;-90
2021/03/02 15:22:45;;;;;;;32.42;14.23;;;18.70;99.90;;;;;;4040694;29;20186;-90
2021/03/02 15:24:48;;;;;;;29.27;14.73;;;18.80;99.90;;;;;;4027181;29;20216;-89
2021/03/02 15:26:49;;;;;;;36.28;14.32;;;18.90;99.90;;;;;;4013191;29;20195;-94
2021/03/02 15:28:54;;;;;;;35.42;14.05;;;18.60;99.90;;;;;;4042726;29;20181;-89
2021/03/02 15:30:59;;;;;;;35.60;13.32;;;18.40;99.90;;;;;;4026993;29;20659;-93
2021/03/02 15:33:00;;;;;;;34.13;14.45;;;18.30;99.90;;;;;;4029330;29;20264;-91
2021/03/02 15:35:03;;;;;;;33.45;14.38;;;18.30;99.90;;;;;;4046038;29;20189;-90
2021/03/02 15:37:06;;;;;;;28.60;12.68;;;18.50;99.90;;;;;;4039765;29;20205;-90
2021/03/02 15:39:08;;;;;;;34.45;13.75;;;18.60;99.90;;;;;;4068507;29;20668;-93
2021/03/02 15:41:08;;;;;;;33.60;13.80;;;18.50;99.90;;;;;;4028211;29;20190;-94
2021/03/02 15:43:12;;;;;;;34.35;13.65;;;18.60;99.90;;;;;;4058258;29;20667;-91
2021/03/02 15:45:14;;;;;;;33.30;12.15;;;18.60;99.90;;;;;;4027225;29;20254;-92
2021/03/02 15:47:16;;;;;;;30.80;12.35;;;18.40;99.90;;;;;;4025958;29;20642;-90
2021/03/02 15:49:17;;;;;;;31.35;12.40;;;18.60;99.90;;;;;;4058221;29;20292;-93
2021/03/02 15:51:18;;;;;;;26.80;11.77;;;18.40;99.90;;;;;;4041934;29;20178;-90
2021/03/02 15:53:20;;;;;;;26.88;13.07;;;18.40;99.90;;;;;;4058852;29;20212;-93
2021/03/02 15:55:21;;;;;;;35.28;13.27;;;18.60;99.90;;;;;;4026457;29;20714;-90
2021/03/02 15:57:21;;;;;;;34.50;13.57;;;18.60;99.90;;;;;;4041937;29;20215;-91
2021/03/02 15:59:22;;;;;;;32.05;13.43;;;18.60;99.90;;;;;;4025786;29;20246;-96
2021/03/02 16:01:33;;;;;;;29.80;13.18;;;18.60;99.90;;;;;;4025793;29;20174;-91
2021/03/02 16:03:48;;;;;;;30.13;12.50;;;18.50;99.90;;;;;;4025838;29;20222;-91
2021/03/02 16:05:51;;;;;;;36.78;13.55;;;18.50;99.90;;;;;;4024984;29;20222;-90
2021/03/02 16:08:01;;;;;;;33.88;14.60;;;18.40;99.90;;;;;;4026009;29;20281;-93
2021/03/02 16:10:10;;;;;;;33.30;12.20;;;18.50;99.90;;;;;;4025029;29;20234;-94
2021/03/02 16:12:23;;;;;;;31.00;12.95;;;18.60;99.90;;;;;;4025056;29;20204;-94
2021/03/02 16:14:25;;;;;;;31.85;13.73;;;18.50;99.90;;;;;;4025600;29;20273;-89
2021/03/02 16:16:29;;;;;;;28.38;12.77;;;18.60;99.90;;;;;;4025787;29;20253;-94
2021/03/02 16:18:30;;;;;;;28.50;12.20;;;18.50;99.90;;;;;;4025853;29;20595;-95
2021/03/02 16:20:34;;;;;;;28.05;12.25;;;18.50;99.90;;;;;;4056544;29;20261;-93
2021/03/02 16:22:44;;;;;;;30.65;12.18;;;18.50;99.90;;;;;;4025876;29;20190;-90
2021/03/02 16:24:45;;;;;;;33.80;12.77;;;18.50;99.90;;;;;;4025912;29;20318;-90
2021/03/02 16:26:48;;;;;;;34.80;13.43;;;18.30;99.90;;;;;;4041006;29;20193;-90
2021/03/02 16:28:51;;;;;;;29.58;13.02;;;18.20;99.90;;;;;;4024533;29;20623;-96
2021/03/02 16:30:52;;;;;;;40.65;13.57;;;18.10;99.90;;;;;;4024147;29;20301;-90
2021/03/02 16:32:54;;;;;;;34.45;13.15;;;18.00;99.90;;;;;;4025113;29;20220;-95
2021/03/02 16:34:55;;;;;;;36.72;13.30;;;17.80;99.90;;;;;;4025396;29;20288;-89
2021/03/02 16:36:57;;;;;;;35.45;12.88;;;17.80;99.90;;;;;;4039380;29;20221;-95
2021/03/02 16:38:58;;;;;;;40.47;13.70;;;17.80;99.90;;;;;;4023178;29;20266;-93
2021/03/02 16:41:01;;;;;;;37.78;13.52;;;17.70;99.90;;;;;;4038511;29;20185;-93
2021/03/02 16:43:02;;;;;;;30.48;12.77;;;17.90;99.90;;;;;;4022791;29;20226;-93
2021/03/02 16:45:04;;;;;;;32.38;13.32;;;18.00;99.90;;;;;;4038295;29;20182;-92
2021/03/02 16:47:05;;;;;;;30.10;13.10;;;17.90;99.90;;;;;;4053669;29;20181;-92
2021/03/02 16:49:16;;;;;;;39.17;13.75;;;17.90;99.90;;;;;;4022734;29;20214;-93
2021/03/02 16:51:24;;;;;;;34.20;13.35;;;17.80;99.90;;;;;;4022837;29;20241;-92